createdAt,value
2022-11-20T00:02:40.350Z,99998.00
2022-11-20T00:05:43.239Z,99987.72
2022-11-20T00:08:46.082Z,100001.66
2022-11-20T00:11:49.071Z,99992.87
2022-11-20T00:14:51.663Z,99992.94
2022-11-20T00:17:54.563Z,99994.75
2022-11-20T00:21:09.222Z,99989.94
2022-11-20T00:24:12.283Z,99988.78
2022-11-20T00:27:14.779Z,99989.28
2022-11-20T00:30:17.806Z,99988.78
2022-11-20T00:33:20.479Z,99984.44
2022-11-20T00:36:25.735Z,99981.84
2022-11-20T00:39:28.363Z,99973.13
2022-11-20T00:42:33.810Z,99967.19
2022-11-20T00:45:36.398Z,99960.12
2022-11-20T00:48:39.352Z,99963.84
2022-11-20T00:51:41.911Z,99979.44
2022-11-20T00:54:44.854Z,99989.84
2022-11-20T00:57:47.376Z,99998.31
2022-11-20T01:00:50.872Z,100005.50
2022-11-20T01:03:55.429Z,100004.31
2022-11-20T01:06:58.380Z,100005.53
2022-11-20T01:10:00.997Z,100010.34
2022-11-20T01:13:25.664Z,100011.03
2022-11-20T01:16:32.802Z,100011.28
2022-11-20T01:19:35.728Z,100014.59
2022-11-20T01:22:38.286Z,100028.62
2022-11-20T01:25:41.217Z,100016.59
2022-11-20T01:28:44.128Z,100001.66
2022-11-20T01:31:47.170Z,100014.47
2022-11-20T01:34:49.678Z,100015.25
2022-11-20T01:37:52.636Z,100009.28
2022-11-20T01:40:57.619Z,99992.25
2022-11-20T01:44:01.425Z,99983.28
2022-11-20T01:47:06.262Z,99984.72
2022-11-20T01:50:17.969Z,99983.44
2022-11-20T01:53:25.143Z,99973.66
2022-11-20T01:56:29.942Z,99971.97
2022-11-20T01:59:32.734Z,99969.16
2022-11-20T02:02:37.622Z,99962.94
2022-11-20T02:05:48.957Z,99970.00
2022-11-20T02:08:52.946Z,99963.72
2022-11-20T02:11:57.144Z,99971.59
2022-11-20T02:14:59.822Z,99982.97
2022-11-20T02:18:02.739Z,99985.22
2022-11-20T02:21:14.464Z,99981.13
2022-11-20T02:24:19.758Z,99969.38
2022-11-20T02:27:23.500Z,99963.09
2022-11-20T02:30:26.354Z,99956.25
2022-11-20T02:33:28.962Z,99949.19
2022-11-20T02:36:35.065Z,99946.38
2022-11-20T02:39:37.756Z,99957.41
2022-11-20T02:42:41.344Z,99959.06
2022-11-20T02:45:44.301Z,99971.37
2022-11-20T02:48:47.129Z,99968.72
2022-11-20T02:51:50.826Z,99979.53
2022-11-20T02:54:54.394Z,99983.03
2022-11-20T02:57:57.857Z,99968.97
2022-11-20T03:01:01.213Z,99965.44
2022-11-20T03:04:04.069Z,99967.38
2022-11-20T03:07:07.131Z,99975.53
2022-11-20T03:10:10.078Z,99971.00
2022-11-20T03:13:12.976Z,99960.53
2022-11-20T03:16:20.882Z,99964.81
2022-11-20T03:19:24.155Z,99953.31
2022-11-20T03:22:26.840Z,99954.16
2022-11-20T03:25:29.848Z,99953.06
2022-11-20T03:28:32.474Z,99953.44
2022-11-20T03:31:43.810Z,99954.06
2022-11-20T03:34:46.347Z,99959.19
2022-11-20T03:37:49.663Z,99954.50
2022-11-20T03:40:52.266Z,99957.34
2022-11-20T03:43:57.929Z,99965.22
2022-11-20T03:47:00.480Z,99975.50
2022-11-20T03:50:04.211Z,99964.72
2022-11-20T03:53:06.834Z,99956.22
2022-11-20T03:56:11.331Z,99958.78
2022-11-20T03:59:14.042Z,99954.13
2022-11-20T04:02:16.879Z,99960.28
2022-11-20T04:05:19.894Z,99955.63
2022-11-20T04:08:22.560Z,99940.78
2022-11-20T04:11:31.440Z,99942.25
2022-11-20T04:14:34.042Z,99934.75
2022-11-20T04:17:37.115Z,99930.38
2022-11-20T04:20:39.757Z,99920.66
2022-11-20T04:23:42.638Z,99928.31
2022-11-20T04:26:45.207Z,99921.47
2022-11-20T04:29:48.140Z,99914.59
2022-11-20T04:32:50.694Z,99919.41
2022-11-20T04:35:53.613Z,99902.75
2022-11-20T04:39:01.298Z,99913.69
2022-11-20T04:42:23.131Z,99908.56
2022-11-20T04:45:25.731Z,99932.53
2022-11-20T04:48:30.397Z,99925.59
2022-11-20T04:51:33.942Z,99924.81
2022-11-20T04:54:36.845Z,99911.88
2022-11-20T04:57:39.403Z,99922.47
2022-11-20T05:00:42.421Z,99917.44
2022-11-20T05:03:46.099Z,99927.44
2022-11-20T05:06:49.259Z,99927.88
2022-11-20T05:09:51.810Z,99929.94
2022-11-20T05:12:54.888Z,99941.09
2022-11-20T05:16:03.372Z,99944.75
2022-11-20T05:19:06.246Z,99949.09
2022-11-20T05:22:08.784Z,99948.91
2022-11-20T05:25:12.881Z,99943.62
2022-11-20T05:28:15.399Z,99937.81
2022-11-20T05:31:28.162Z,99930.47
2022-11-20T05:34:31.129Z,99939.09
2022-11-20T05:37:34.142Z,99936.25
2022-11-20T05:40:37.302Z,99933.69
2022-11-20T05:43:41.731Z,99932.59
2022-11-20T05:46:44.325Z,99935.91
2022-11-20T05:49:47.300Z,99936.59
2022-11-20T05:52:50.880Z,99931.50
2022-11-20T05:56:02.133Z,99927.69
2022-11-20T05:59:04.733Z,99930.97
2022-11-20T06:02:07.608Z,99939.47
2022-11-20T06:05:10.544Z,99938.84
2022-11-20T06:08:13.265Z,99943.78
2022-11-20T06:11:17.566Z,99933.47
2022-11-20T06:14:20.245Z,99908.28
2022-11-20T06:17:23.113Z,99911.94
2022-11-20T06:20:25.735Z,99909.50
2022-11-20T06:23:30.455Z,99911.97
2022-11-20T06:26:33.136Z,99919.84
2022-11-20T06:29:36.144Z,99937.81
2022-11-20T06:32:38.771Z,99924.31
2022-11-20T06:35:41.717Z,99925.25
2022-11-20T06:38:44.562Z,99928.16
2022-11-20T06:41:47.651Z,99914.25
2022-11-20T06:44:50.225Z,99918.38
2022-11-20T06:47:53.236Z,99934.75
2022-11-20T06:50:56.402Z,99937.81
2022-11-20T06:53:59.307Z,99948.91
2022-11-20T06:57:02.015Z,99956.66
2022-11-20T07:00:05.436Z,99959.41
2022-11-20T07:03:10.112Z,99961.47
2022-11-20T07:06:12.991Z,99958.13
2022-11-20T07:09:15.859Z,99965.53
2022-11-20T07:12:18.770Z,99972.16
2022-11-20T07:15:23.495Z,99979.06
2022-11-20T07:18:26.349Z,99972.97
2022-11-20T07:21:29.007Z,99979.38
2022-11-20T07:24:31.887Z,99971.00
2022-11-20T07:27:34.569Z,99985.53
2022-11-20T07:30:37.603Z,99979.03
2022-11-20T07:33:40.434Z,99989.03
2022-11-20T07:36:43.357Z,99988.25
2022-11-20T07:39:46.119Z,99983.09
2022-11-20T07:42:56.359Z,99986.31
2022-11-20T07:46:01.181Z,99985.19
2022-11-20T07:49:05.811Z,99989.44
2022-11-20T07:52:10.541Z,99994.69
2022-11-20T07:55:16.440Z,100001.78
2022-11-20T07:58:21.249Z,100010.13
2022-11-20T08:01:24.132Z,100013.87
2022-11-20T08:04:27.121Z,100004.84
2022-11-20T08:07:29.703Z,99994.66
2022-11-20T08:10:32.926Z,99992.25
2022-11-20T08:13:54.291Z,99995.09
2022-11-20T08:16:57.531Z,99991.66
2022-11-20T08:20:00.256Z,99993.84
2022-11-20T08:23:06.517Z,99993.25
2022-11-20T08:26:09.168Z,99988.69
2022-11-20T08:29:12.287Z,99999.06
2022-11-20T08:32:14.938Z,100003.03
2022-11-20T08:35:17.971Z,100000.47
2022-11-20T08:38:20.586Z,100006.78
2022-11-20T08:41:27.840Z,100011.41
2022-11-20T08:44:30.420Z,100019.75
2022-11-20T08:47:33.352Z,100018.19
2022-11-20T08:50:37.391Z,100020.44
2022-11-20T08:53:41.346Z,100019.87
2022-11-20T08:56:43.905Z,100025.31
2022-11-20T09:03:09.856Z,100045.78
2022-11-20T09:06:13.540Z,100046.22
2022-11-20T09:09:16.100Z,100041.31
2022-11-20T09:12:19.450Z,100033.72
2022-11-20T09:15:22.760Z,100033.81
2022-11-20T09:18:26.876Z,100042.41
2022-11-20T09:21:30.089Z,100042.22
2022-11-20T09:24:33.012Z,100048.84
2022-11-20T09:27:36.778Z,100047.03
2022-11-20T09:30:39.774Z,100043.50
2022-11-20T09:33:42.458Z,100034.69
2022-11-20T09:36:46.286Z,100037.50
2022-11-20T09:39:48.871Z,100034.06
2022-11-20T09:43:07.425Z,100030.53
2022-11-20T09:46:13.008Z,100035.47
2022-11-20T09:49:33.716Z,100044.47
2022-11-20T09:52:48.636Z,100046.06
2022-11-20T09:55:52.301Z,100037.56
2022-11-20T09:59:03.410Z,100037.56
2022-11-20T10:02:31.858Z,100048.59
2022-11-20T10:05:48.321Z,100047.41
2022-11-20T10:09:08.110Z,100046.59
2022-11-20T10:12:22.951Z,100042.16
2022-11-20T10:15:37.302Z,100028.28
2022-11-20T10:18:46.443Z,100019.28
2022-11-20T10:21:58.046Z,100026.50
2022-11-20T10:25:19.365Z,100009.13
2022-11-20T10:28:41.077Z,100017.72
2022-11-20T10:31:48.149Z,100021.38
2022-11-20T10:35:26.828Z,100014.84
2022-11-20T10:38:44.304Z,100011.28
2022-11-20T10:41:52.079Z,100004.34
2022-11-20T10:45:14.733Z,100006.41
2022-11-20T10:48:28.662Z,100000.00
2022-11-20T10:51:50.748Z,99986.81
2022-11-20T10:55:07.267Z,99973.38
2022-11-20T10:58:32.956Z,99970.34
2022-11-20T11:01:42.917Z,99972.13
2022-11-20T11:04:54.730Z,99954.66
2022-11-20T11:07:59.811Z,99958.62
2022-11-20T11:11:19.511Z,99962.75
2022-11-20T11:14:22.133Z,99959.59
2022-11-20T11:17:33.504Z,99972.84
2022-11-20T11:20:36.080Z,99969.78
2022-11-20T11:23:44.290Z,99974.66
2022-11-20T11:27:12.381Z,99978.78
2022-11-20T11:30:21.177Z,99975.09
2022-11-20T11:33:35.020Z,99974.16
2022-11-20T11:36:38.153Z,99990.75
2022-11-20T11:39:43.263Z,99999.38
2022-11-20T11:42:55.141Z,99997.97
2022-11-20T11:45:58.311Z,99985.84
2022-11-20T11:49:10.370Z,99982.03
2022-11-20T11:52:17.549Z,99986.59
2022-11-20T11:55:29.062Z,99991.47
2022-11-20T11:58:53.247Z,99979.53
2022-11-20T12:02:02.441Z,99983.63
2022-11-20T12:05:44.716Z,99983.88
2022-11-20T12:08:49.933Z,99970.03
2022-11-20T12:12:04.674Z,99970.63
2022-11-20T12:15:14.108Z,99962.69
2022-11-20T12:18:21.273Z,99974.34
2022-11-20T12:21:24.055Z,99973.69
2022-11-20T12:24:42.206Z,99970.22
2022-11-20T12:27:51.385Z,99964.78
2022-11-20T12:31:32.137Z,99969.13
2022-11-20T12:35:00.557Z,99975.53
2022-11-20T12:38:18.977Z,99964.38
2022-11-20T12:42:00.192Z,99946.22
2022-11-20T12:45:28.037Z,99937.63
2022-11-20T12:48:46.791Z,99941.44
2022-11-20T12:52:21.064Z,99942.91
2022-11-20T12:55:42.458Z,99932.75
2022-11-20T12:59:21.452Z,99927.31
2022-11-20T13:02:39.063Z,99924.09
2022-11-20T13:05:45.611Z,99932.63
2022-11-20T13:08:55.805Z,99916.84
2022-11-20T13:12:15.687Z,99912.03
2022-11-20T13:15:54.207Z,99911.28
2022-11-20T13:18:57.737Z,99905.03
2022-11-20T13:22:00.562Z,99902.06
2022-11-20T13:25:04.093Z,99897.41
2022-11-20T13:28:30.809Z,99893.78
2022-11-20T13:31:36.513Z,99907.47
2022-11-20T13:34:40.692Z,99908.91
2022-11-20T13:37:45.250Z,99908.69
2022-11-20T13:40:56.180Z,99901.22
2022-11-20T13:44:09.124Z,99912.47
2022-11-20T13:47:27.516Z,99908.81
2022-11-20T13:50:50.712Z,99906.81
2022-11-20T13:54:22.717Z,99904.03
2022-11-20T13:57:51.504Z,99890.94
2022-11-20T14:01:11.149Z,99901.47
2022-11-20T14:04:28.041Z,99892.03
2022-11-20T14:07:42.597Z,99894.19
2022-11-20T14:10:46.204Z,99891.69
2022-11-20T14:14:06.420Z,99893.91
2022-11-20T14:17:19.399Z,99894.97
2022-11-20T14:20:27.033Z,99899.00
2022-11-20T14:23:30.944Z,99897.59
2022-11-20T14:26:37.533Z,99915.16
2022-11-20T14:29:42.143Z,99910.09
2022-11-20T14:32:47.551Z,99922.34
2022-11-20T14:35:56.602Z,99922.00
2022-11-20T14:38:59.540Z,99933.28
2022-11-20T14:42:04.463Z,99932.72
2022-11-20T14:45:13.279Z,99926.53
2022-11-20T14:48:17.089Z,99926.41
2022-11-20T14:51:48.014Z,99938.91
2022-11-20T14:54:53.605Z,99938.38
2022-11-20T14:57:58.619Z,99937.28
2022-11-20T15:01:08.136Z,99931.66
2022-11-20T15:04:13.070Z,99931.53
2022-11-20T15:07:31.547Z,99928.12
2022-11-20T15:10:34.427Z,99920.34
2022-11-20T15:13:40.751Z,99921.94
2022-11-20T15:16:43.460Z,99918.16
2022-11-20T15:19:46.688Z,99913.94
2022-11-20T15:22:49.385Z,99925.37
2022-11-20T15:25:52.597Z,99917.78
2022-11-20T15:28:55.920Z,99919.84
2022-11-20T15:31:59.883Z,99917.87
2022-11-20T15:35:03.015Z,99932.75
2022-11-20T15:38:06.493Z,99922.53
2022-11-20T15:41:09.831Z,99933.72
2022-11-20T15:44:13.283Z,99932.13
2022-11-20T15:47:16.394Z,99928.06
2022-11-20T15:50:19.929Z,99938.78
2022-11-20T15:53:23.203Z,99941.41
2022-11-20T15:56:27.699Z,99947.69
2022-11-20T15:59:30.914Z,99935.94
2022-11-20T16:02:34.258Z,99935.66
2022-11-20T16:05:37.648Z,99932.44
2022-11-20T16:08:40.614Z,99924.25
2022-11-20T16:11:43.975Z,99933.25
2022-11-20T16:15:08.229Z,99921.62
2022-11-20T16:18:25.158Z,99930.88
2022-11-20T16:21:32.709Z,99917.94
2022-11-20T16:24:36.154Z,99922.16
2022-11-20T16:27:39.832Z,99918.63
2022-11-20T16:30:43.807Z,99911.38
2022-11-20T16:33:54.328Z,99914.31
2022-11-20T16:36:57.363Z,99926.13
2022-11-20T16:40:01.367Z,99923.72
2022-11-20T16:43:15.668Z,99922.66
2022-11-20T16:46:20.750Z,99921.59
2022-11-20T16:49:26.046Z,99920.00
2022-11-20T16:52:33.271Z,99912.41
2022-11-20T16:55:37.516Z,99912.34
2022-11-20T16:58:40.680Z,99910.13
2022-11-20T17:01:45.254Z,99915.81
2022-11-20T17:08:10.003Z,99908.72
2022-11-20T17:11:15.383Z,99905.72
2022-11-20T17:14:18.894Z,99908.75
2022-11-20T17:17:21.608Z,99902.81
2022-11-20T17:20:25.037Z,99898.78
2022-11-20T17:23:33.235Z,99901.84
2022-11-20T17:26:38.853Z,99898.59
2022-11-20T17:29:42.384Z,99886.72
2022-11-20T17:32:47.625Z,99893.22
2022-11-20T17:35:50.698Z,99886.16
2022-11-20T17:38:54.080Z,99873.72
2022-11-20T17:42:16.105Z,99873.44
2022-11-20T17:45:19.518Z,99854.44
2022-11-20T17:48:22.986Z,99861.09
2022-11-20T17:51:28.449Z,99858.34
2022-11-20T17:54:33.284Z,99856.44
2022-11-20T17:57:56.880Z,99856.59
2022-11-20T18:01:06.485Z,99862.38
2022-11-20T18:04:11.243Z,99854.97
2022-11-20T18:07:14.352Z,99854.50
2022-11-20T18:10:17.952Z,99848.53
2022-11-20T18:13:21.193Z,99853.50
2022-11-20T18:16:27.638Z,99861.91
2022-11-20T18:19:42.720Z,99862.06
2022-11-20T18:22:54.473Z,99868.97
2022-11-20T18:26:01.195Z,99859.66
2022-11-20T18:29:07.405Z,99864.78
2022-11-20T18:32:10.734Z,99865.72
2022-11-20T18:35:14.309Z,99861.56
2022-11-20T18:38:18.038Z,99870.38
2022-11-20T18:41:44.051Z,99878.09
2022-11-20T18:44:53.368Z,99874.75
2022-11-20T18:47:56.942Z,99878.25
2022-11-20T18:51:09.356Z,99872.16
2022-11-20T18:54:13.558Z,99871.87
2022-11-20T18:57:21.571Z,99880.84
2022-11-20T19:00:25.411Z,99886.59
2022-11-20T19:03:28.764Z,99892.38
2022-11-20T19:06:32.339Z,99901.97
2022-11-20T19:09:35.837Z,99903.91
2022-11-20T19:12:39.311Z,99904.22
2022-11-20T19:15:42.574Z,99908.28
2022-11-20T19:18:46.333Z,99909.75
2022-11-20T19:21:50.954Z,99903.53
2022-11-20T19:24:54.415Z,99905.59
2022-11-20T19:27:57.803Z,99901.87
2022-11-20T19:31:09.521Z,99904.28
2022-11-20T19:34:12.722Z,99907.81
2022-11-20T19:37:16.112Z,99902.66
2022-11-20T19:40:19.312Z,99916.97
2022-11-20T19:43:22.791Z,99927.38
2022-11-20T19:46:27.098Z,99929.31
2022-11-20T19:49:30.530Z,99931.81
2022-11-20T19:52:34.603Z,99935.38
2022-11-20T19:55:39.451Z,99928.41
2022-11-20T19:58:43.149Z,99933.50
2022-11-20T20:01:47.403Z,99939.87
2022-11-20T20:04:50.553Z,99935.06
2022-11-20T20:07:53.656Z,99942.63
2022-11-20T20:10:59.606Z,99943.44
2022-11-20T20:14:08.906Z,99934.03
2022-11-20T20:17:13.176Z,99937.97
2022-11-20T20:20:19.150Z,99919.72
2022-11-20T20:23:23.707Z,99917.78
2022-11-20T20:26:28.813Z,99910.72
2022-11-20T20:29:32.830Z,99912.94
2022-11-20T20:32:36.781Z,99911.69
2022-11-20T20:35:43.507Z,99892.84
2022-11-20T20:38:47.024Z,99890.06
2022-11-20T20:41:50.799Z,99880.56
2022-11-20T20:45:08.612Z,99874.78
2022-11-20T20:48:15.077Z,99880.91
2022-11-20T20:51:18.125Z,99862.97
2022-11-20T20:54:21.794Z,99860.22
2022-11-20T20:57:25.617Z,99880.06
2022-11-20T21:00:29.979Z,99866.66
2022-11-20T21:03:34.619Z,99866.13
2022-11-20T21:06:38.050Z,99862.13
2022-11-20T21:09:41.141Z,99858.09
2022-11-20T21:12:44.132Z,99856.97
2022-11-20T21:15:51.593Z,99855.84
2022-11-20T21:18:56.633Z,99859.34
2022-11-20T21:21:59.484Z,99855.00
2022-11-20T21:25:02.390Z,99840.56
2022-11-20T21:28:05.067Z,99855.97
2022-11-20T21:31:09.288Z,99855.97
2022-11-20T21:34:13.340Z,99861.19
2022-11-20T21:37:16.532Z,99873.06
2022-11-20T21:40:19.117Z,99866.41
2022-11-20T21:43:22.549Z,99854.19
2022-11-20T21:46:25.352Z,99835.28
2022-11-20T21:49:28.353Z,99831.78
2022-11-20T21:52:30.957Z,99834.47
2022-11-20T21:55:33.936Z,99830.41
2022-11-20T21:58:38.008Z,99829.88
2022-11-20T22:01:41.811Z,99828.09
2022-11-20T22:04:44.831Z,99815.84
2022-11-20T22:07:47.384Z,99820.50
2022-11-20T22:10:56.845Z,99826.84
2022-11-20T22:14:18.175Z,99840.09
2022-11-20T22:17:41.022Z,99835.13
2022-11-20T22:20:43.753Z,99837.34
2022-11-20T22:23:46.865Z,99838.06
2022-11-20T22:26:49.989Z,99833.87
2022-11-20T22:29:52.940Z,99848.47
2022-11-20T22:32:56.574Z,99837.44
2022-11-20T22:36:02.915Z,99842.59
2022-11-20T22:39:06.177Z,99834.41
2022-11-20T22:42:09.099Z,99840.69
2022-11-20T22:45:12.197Z,99840.84
2022-11-20T22:48:15.134Z,99829.81
2022-11-20T22:51:20.401Z,99840.53
2022-11-20T22:54:23.437Z,99825.47
2022-11-20T22:57:26.128Z,99816.00
2022-11-20T23:00:29.097Z,99807.06
2022-11-20T23:03:31.771Z,99814.19
2022-11-20T23:06:34.963Z,99806.41
2022-11-20T23:09:37.526Z,99801.22
2022-11-20T23:12:40.747Z,99795.34
2022-11-20T23:15:44.575Z,99797.94
2022-11-20T23:18:48.721Z,99800.22
2022-11-20T23:21:51.359Z,99798.00
2022-11-20T23:24:54.297Z,99787.47
2022-11-20T23:27:56.853Z,99789.28
2022-11-20T23:30:59.967Z,99783.47
2022-11-20T23:34:02.765Z,99777.84
2022-11-20T23:37:05.663Z,99766.91
2022-11-20T23:40:08.592Z,99778.88
2022-11-20T23:43:17.373Z,99787.25
2022-11-20T23:46:20.029Z,99779.06
2022-11-20T23:49:22.942Z,99779.97
2022-11-20T23:52:26.588Z,99783.72
2022-11-20T23:55:29.771Z,99772.41
2022-11-20T23:58:35.567Z,99769.06
